createdAt,value
2019-05-13T00:01:37.784Z,84.00
2019-05-13T00:04:09.183Z,83.90
2019-05-13T00:06:51.429Z,83.80
2019-05-13T00:09:14.207Z,83.90
2019-05-13T00:11:45.831Z,84.00
2019-05-13T00:14:17.258Z,84.00
2019-05-13T00:16:48.668Z,83.80
2019-05-13T00:19:19.998Z,83.60
2019-05-13T00:21:51.534Z,83.70
2019-05-13T00:24:24.307Z,83.70
2019-05-13T00:26:55.876Z,83.70
2019-05-13T00:29:27.216Z,83.60
2019-05-13T00:31:58.850Z,83.60
2019-05-13T00:34:30.830Z,83.60
2019-05-13T00:37:08.991Z,83.60
2019-05-13T00:39:35.586Z,83.60
2019-05-13T00:42:07.128Z,83.50
2019-05-13T00:44:38.786Z,83.50
2019-05-13T00:47:10.488Z,83.50
2019-05-13T00:49:43.680Z,83.40
2019-05-13T00:52:15.341Z,83.50
2019-05-13T00:54:46.706Z,83.50
2019-05-13T00:57:18.166Z,83.50
2019-05-13T00:59:49.695Z,83.30
2019-05-13T01:02:21.413Z,83.40
2019-05-13T01:04:53.554Z,83.40
2019-05-13T01:07:28.780Z,83.40
2019-05-13T01:09:58.854Z,83.40
2019-05-13T01:12:30.429Z,83.50
2019-05-13T01:15:04.056Z,83.40
2019-05-13T01:17:35.709Z,83.50
2019-05-13T01:20:07.705Z,83.60
2019-05-13T01:22:40.087Z,83.50
2019-05-13T01:25:14.478Z,83.60
2019-05-13T01:27:45.806Z,83.60
2019-05-13T01:30:17.481Z,83.60
2019-05-13T01:32:48.964Z,83.60
2019-05-13T01:35:20.758Z,83.60
2019-05-13T01:37:53.844Z,83.50
2019-05-13T01:40:25.555Z,83.50
2019-05-13T01:42:57.360Z,83.30
2019-05-13T01:45:28.708Z,83.50
2019-05-13T01:48:00.376Z,83.50
2019-05-13T01:50:33.823Z,83.70
2019-05-13T01:53:05.899Z,83.70
2019-05-13T01:55:38.300Z,83.60
2019-05-13T01:58:09.854Z,83.40
2019-05-13T02:00:44.017Z,83.30
2019-05-13T02:03:14.831Z,83.30
2019-05-13T02:05:46.096Z,83.40
2019-05-13T02:08:17.429Z,83.40
2019-05-13T02:10:50.818Z,83.50
2019-05-13T02:13:24.412Z,83.60
2019-05-13T02:15:56.571Z,83.60
2019-05-13T02:18:28.315Z,83.60
2019-05-13T02:20:59.636Z,83.80
2019-05-13T02:23:33.834Z,83.80
2019-05-13T02:26:04.706Z,84.70
2019-05-13T02:28:36.233Z,84.10
2019-05-13T02:31:07.503Z,84.10
2019-05-13T02:33:38.967Z,84.10
2019-05-13T02:36:13.216Z,84.10
2019-05-13T02:38:43.746Z,84.10
2019-05-13T02:41:15.328Z,84.10
2019-05-13T02:43:46.733Z,84.30
2019-05-13T02:46:18.113Z,84.10
2019-05-13T02:48:52.664Z,84.10
2019-05-13T02:51:23.485Z,84.20
2019-05-13T02:53:55.674Z,84.20
2019-05-13T02:56:26.964Z,84.40
2019-05-13T02:58:58.286Z,84.30
2019-05-13T03:01:33.007Z,84.30
2019-05-13T03:04:03.528Z,84.40
2019-05-13T03:06:35.303Z,84.40
2019-05-13T03:09:06.718Z,84.50
2019-05-13T03:11:38.345Z,84.50
2019-05-13T03:14:12.503Z,84.50
2019-05-13T03:16:45.069Z,84.50
2019-05-13T03:19:16.598Z,84.50
2019-05-13T03:21:52.499Z,84.50
2019-05-13T03:24:23.557Z,84.60
2019-05-13T03:26:55.018Z,84.60
2019-05-13T03:29:26.562Z,84.40
2019-05-13T03:31:57.954Z,84.20
2019-05-13T03:34:35.197Z,84.10
2019-05-13T03:37:06.830Z,84.20
2019-05-13T03:39:36.043Z,84.30
2019-05-13T03:42:12.299Z,84.40
2019-05-13T03:44:44.099Z,84.30
2019-05-13T03:47:17.646Z,84.50
2019-05-13T03:49:53.325Z,84.50
2019-05-13T03:52:24.785Z,84.50
2019-05-13T03:54:56.414Z,84.50
2019-05-13T03:57:27.935Z,84.70
2019-05-13T04:00:03.208Z,84.70
2019-05-13T04:02:32.747Z,84.60
2019-05-13T04:05:04.551Z,84.40
2019-05-13T04:07:36.216Z,84.60
2019-05-13T04:10:07.719Z,84.60
2019-05-13T04:12:42.356Z,85.20
2019-05-13T04:15:12.869Z,84.70
2019-05-13T04:17:44.545Z,84.70
2019-05-13T04:20:16.049Z,84.50
2019-05-13T04:22:47.390Z,84.40
2019-05-13T04:25:18.858Z,84.20
2019-05-13T04:27:52.585Z,84.20
2019-05-13T04:30:24.193Z,84.40
2019-05-13T04:32:55.973Z,84.40
2019-05-13T04:35:27.777Z,84.30
2019-05-13T04:37:59.179Z,84.30
2019-05-13T04:40:33.205Z,84.40
2019-05-13T04:43:04.019Z,84.30
2019-05-13T04:45:35.417Z,84.20
2019-05-13T04:48:07.320Z,84.10
2019-05-13T04:50:38.882Z,84.00
2019-05-13T04:53:13.394Z,84.00
2019-05-13T04:55:43.832Z,83.90
2019-05-13T04:58:15.162Z,83.80
2019-05-13T05:01:14.138Z,83.60
2019-05-13T05:04:24.469Z,83.50
2019-05-13T05:07:18.091Z,83.40
2019-05-13T05:10:33.112Z,83.20
2019-05-13T05:13:33.394Z,83.20
2019-05-13T05:16:14.662Z,83.00
2019-05-13T05:19:07.561Z,82.90
2019-05-13T05:21:57.433Z,82.90
2019-05-13T05:24:52.034Z,82.90
2019-05-13T05:27:51.481Z,82.90
2019-05-13T05:30:38.416Z,82.80
2019-05-13T05:33:32.193Z,82.80
2019-05-13T05:36:26.867Z,83.00
2019-05-13T05:39:09.021Z,82.90
2019-05-13T05:41:42.198Z,82.60
2019-05-13T05:44:14.805Z,82.60
2019-05-13T05:46:47.638Z,82.50
2019-05-13T05:49:21.386Z,82.50
2019-05-13T05:52:03.988Z,82.60
2019-05-13T05:54:37.682Z,82.30
2019-05-13T05:57:11.850Z,82.20
2019-05-13T05:59:42.849Z,82.00
2019-05-13T06:02:16.234Z,81.80
2019-05-13T06:04:48.446Z,81.60
2019-05-13T06:07:21.960Z,81.20
2019-05-13T06:09:53.233Z,81.10
2019-05-13T06:12:25.921Z,81.10
2019-05-13T06:14:58.413Z,80.90
2019-05-13T06:17:31.901Z,81.10
2019-05-13T06:20:05.066Z,80.90
2019-05-13T06:22:37.236Z,80.90
2019-05-13T06:25:08.968Z,81.00
2019-05-13T06:27:42.246Z,80.90
2019-05-13T06:30:13.786Z,80.80
2019-05-13T06:32:45.502Z,81.00
2019-05-13T06:35:16.770Z,81.00
2019-05-13T06:37:48.340Z,81.10
2019-05-13T06:40:21.410Z,81.50
2019-05-13T06:42:53.117Z,80.60
2019-05-13T06:45:24.605Z,80.50
2019-05-13T06:47:56.031Z,81.00
2019-05-13T06:50:27.794Z,80.40
2019-05-13T06:53:01.527Z,80.80
2019-05-13T06:55:32.267Z,80.80
2019-05-13T06:58:04.016Z,80.60
2019-05-13T07:00:36.005Z,80.70
2019-05-13T07:03:07.398Z,80.50
2019-05-13T07:05:38.699Z,80.30
2019-05-13T07:08:11.951Z,80.40
2019-05-13T07:10:43.194Z,80.30
2019-05-13T07:13:14.590Z,80.10
2019-05-13T07:15:45.904Z,80.00
2019-05-13T07:18:17.838Z,80.00
2019-05-13T07:20:49.124Z,79.80
2019-05-13T07:23:22.404Z,79.90
2019-05-13T07:25:54.026Z,80.10
2019-05-13T07:28:27.439Z,80.10
2019-05-13T07:30:58.885Z,80.00
2019-05-13T07:33:32.063Z,79.90
2019-05-13T07:36:04.025Z,79.80
2019-05-13T07:38:41.570Z,79.60
2019-05-13T07:41:13.115Z,79.70
2019-05-13T07:43:44.868Z,79.80
2019-05-13T07:46:16.375Z,79.70
2019-05-13T07:48:47.870Z,79.60
2019-05-13T07:51:19.097Z,79.50
2019-05-13T07:53:51.787Z,79.40
2019-05-13T07:56:23.365Z,79.10
2019-05-13T07:58:54.742Z,79.20
2019-05-13T08:01:26.049Z,79.10
2019-05-13T08:03:57.358Z,78.60
2019-05-13T08:06:28.718Z,78.50
2019-05-13T08:09:01.661Z,79.10
2019-05-13T08:11:40.145Z,78.50
2019-05-13T08:14:08.393Z,78.30
2019-05-13T08:16:42.563Z,78.60
2019-05-13T08:19:13.260Z,78.00
2019-05-13T08:21:45.138Z,77.70
2019-05-13T08:24:16.666Z,77.70
2019-05-13T08:26:50.061Z,77.80
2019-05-13T08:29:21.714Z,77.80
2019-05-13T08:31:53.531Z,77.80
2019-05-13T08:34:25.313Z,77.70
2019-05-13T08:36:57.089Z,77.80
2019-05-13T08:39:33.371Z,78.10
2019-05-13T08:42:12.752Z,78.10
2019-05-13T08:44:36.051Z,78.00
2019-05-13T08:47:07.417Z,77.80
2019-05-13T08:49:41.272Z,77.60
2019-05-13T08:52:12.364Z,77.50
2019-05-13T08:54:44.325Z,77.40
2019-05-13T08:57:15.589Z,77.30
2019-05-13T08:59:47.020Z,77.00
2019-05-13T09:02:18.659Z,76.80
2019-05-13T09:04:51.465Z,76.70
2019-05-13T09:07:24.379Z,76.50
2019-05-13T09:09:56.201Z,76.30
2019-05-13T09:12:32.551Z,76.10
2019-05-13T09:15:03.307Z,76.10
2019-05-13T09:17:34.455Z,75.80
2019-05-13T09:20:05.872Z,75.70
2019-05-13T09:22:37.433Z,75.70
2019-05-13T09:25:08.934Z,75.80
2019-05-13T09:27:42.531Z,76.00
2019-05-13T09:30:14.308Z,76.00
2019-05-13T09:32:45.773Z,75.40
2019-05-13T09:35:17.792Z,75.30
2019-05-13T09:37:51.564Z,75.50
2019-05-13T09:40:22.885Z,75.20
2019-05-13T09:42:55.466Z,74.70
2019-05-13T09:45:26.870Z,74.30
2019-05-13T09:48:01.532Z,73.70
2019-05-13T09:50:36.074Z,73.30
2019-05-13T09:53:05.909Z,73.20
2019-05-13T09:55:37.617Z,73.10
2019-05-13T09:58:11.661Z,72.80
2019-05-13T10:00:43.294Z,72.50
2019-05-13T10:03:14.823Z,72.60
2019-05-13T10:05:46.131Z,72.20
2019-05-13T10:08:17.561Z,72.00
2019-05-13T10:10:49.167Z,71.90
2019-05-13T10:13:22.930Z,71.90
2019-05-13T10:15:54.442Z,71.90
2019-05-13T10:18:25.990Z,71.60
2019-05-13T10:20:59.361Z,71.60
2019-05-13T10:23:33.005Z,71.40
2019-05-13T10:26:06.852Z,71.40
2019-05-13T10:28:39.297Z,71.70
2019-05-13T10:31:11.987Z,71.10
2019-05-13T10:33:43.538Z,70.90
2019-05-13T10:36:15.379Z,70.70
2019-05-13T10:38:47.149Z,70.20
2019-05-13T10:41:18.817Z,69.90
2019-05-13T10:43:52.052Z,69.80
2019-05-13T10:46:24.185Z,70.20
2019-05-13T10:48:55.981Z,70.40
2019-05-13T10:51:27.857Z,70.20
2019-05-13T10:53:59.700Z,70.30
2019-05-13T10:56:32.813Z,70.10
2019-05-13T10:59:04.591Z,69.90
2019-05-13T11:01:36.221Z,69.60
2019-05-13T11:04:13.116Z,69.50
2019-05-13T11:10:55.466Z,69.00
2019-05-13T11:13:46.843Z,69.10
2019-05-13T11:16:02.409Z,69.40
2019-05-13T11:18:34.007Z,69.60
2019-05-13T11:21:05.548Z,70.10
2019-05-13T11:23:37.427Z,70.50
2019-05-13T11:26:12.851Z,70.50
2019-05-13T11:28:43.683Z,70.60
2019-05-13T11:31:15.837Z,70.70
2019-05-13T11:33:47.870Z,70.70
2019-05-13T11:36:19.659Z,71.10
2019-05-13T11:38:53.342Z,71.00
2019-05-13T11:41:25.732Z,70.90
2019-05-13T11:44:12.008Z,70.90
2019-05-13T11:46:33.307Z,70.70
2019-05-13T11:49:04.555Z,70.70
2019-05-13T11:51:36.077Z,70.60
2019-05-13T11:54:08.149Z,70.60
2019-05-13T11:56:46.367Z,70.70
2019-05-13T11:59:14.130Z,70.70
2019-05-13T12:01:45.975Z,70.50
2019-05-13T12:04:17.383Z,70.40
2019-05-13T12:06:54.082Z,70.40
2019-05-13T12:09:22.434Z,70.40
2019-05-13T12:11:53.937Z,70.20
2019-05-13T12:14:43.010Z,69.90
2019-05-13T12:17:02.066Z,69.40
2019-05-13T12:19:32.166Z,69.30
2019-05-13T12:22:03.447Z,69.20
2019-05-13T12:24:35.923Z,68.80
2019-05-13T12:27:07.463Z,68.60
2019-05-13T12:29:42.690Z,68.90
2019-05-13T12:32:13.802Z,69.00
2019-05-13T12:34:46.199Z,69.20
2019-05-13T12:37:18.683Z,68.90
2019-05-13T12:39:53.006Z,68.80
2019-05-13T12:42:24.717Z,68.90
2019-05-13T12:45:08.257Z,68.90
2019-05-13T12:47:29.393Z,68.90
2019-05-13T12:50:03.410Z,69.00
2019-05-13T12:52:34.098Z,68.90
2019-05-13T12:55:06.052Z,68.70
2019-05-13T12:57:37.633Z,68.70
2019-05-13T13:00:09.455Z,68.70
2019-05-13T13:02:49.168Z,68.70
2019-05-13T13:05:20.353Z,68.60
2019-05-13T13:08:13.552Z,68.30
2019-05-13T13:10:23.096Z,68.30
2019-05-13T13:12:56.172Z,68.30
2019-05-13T13:15:38.458Z,68.20
2019-05-13T13:18:02.577Z,68.50
2019-05-13T13:20:41.626Z,68.40
2019-05-13T13:23:07.698Z,68.30
2019-05-13T13:25:42.471Z,68.60
2019-05-13T13:28:15.540Z,68.50
2019-05-13T13:30:46.356Z,68.50
2019-05-13T13:33:17.670Z,68.50
2019-05-13T13:35:55.879Z,68.50
2019-05-13T13:38:25.302Z,68.80
2019-05-13T13:40:55.940Z,68.90
2019-05-13T13:43:27.648Z,68.90
2019-05-13T13:46:16.470Z,68.80
2019-05-13T13:48:33.386Z,68.80
2019-05-13T13:51:06.015Z,68.50
2019-05-13T13:53:37.928Z,68.60
2019-05-13T13:56:13.361Z,68.70
2019-05-13T13:58:44.012Z,68.50
2019-05-13T14:01:19.928Z,68.00
2019-05-13T14:03:49.246Z,67.10
2019-05-13T14:07:22.939Z,66.30
2019-05-13T14:08:54.229Z,65.30
2019-05-13T14:11:25.759Z,64.60
2019-05-13T14:13:57.956Z,63.40
2019-05-13T14:16:34.217Z,63.10
2019-05-13T14:19:03.317Z,63.00
2019-05-13T14:21:35.102Z,62.70
2019-05-13T14:24:06.458Z,62.00
2019-05-13T14:26:38.061Z,61.50
2019-05-13T14:29:09.336Z,61.00
2019-05-13T14:31:41.363Z,61.00
2019-05-13T14:34:13.074Z,61.30
2019-05-13T14:36:44.891Z,61.30
2019-05-13T14:39:16.246Z,61.20
2019-05-13T14:41:48.364Z,61.40
2019-05-13T14:44:21.956Z,61.60
2019-05-13T14:46:53.537Z,61.30
2019-05-13T14:49:25.589Z,61.20
2019-05-13T14:51:56.983Z,61.90
2019-05-13T14:54:28.242Z,62.40
2019-05-13T14:57:02.151Z,62.90
2019-05-13T14:59:33.194Z,63.60
2019-05-13T15:02:04.728Z,64.40
2019-05-13T15:04:36.265Z,64.60
2019-05-13T15:07:07.821Z,65.10
2019-05-13T15:09:39.096Z,65.70
2019-05-13T15:12:10.716Z,66.30
2019-05-13T15:14:43.015Z,67.40
2019-05-13T15:17:15.377Z,67.40
2019-05-13T15:19:47.012Z,67.70
2019-05-13T15:22:18.555Z,67.90
2019-05-13T15:24:51.852Z,68.20
2019-05-13T15:27:23.309Z,68.40
2019-05-13T15:29:54.903Z,68.80
2019-05-13T15:32:26.458Z,69.20
2019-05-13T15:34:57.768Z,69.40
2019-05-13T15:37:29.016Z,69.60
2019-05-13T15:40:02.279Z,70.00
2019-05-13T15:42:33.523Z,70.10
2019-05-13T15:45:05.749Z,70.50
2019-05-13T15:47:37.122Z,71.10
2019-05-13T15:50:08.826Z,71.20
2019-05-13T15:52:42.958Z,71.40
2019-05-13T15:55:14.109Z,71.80
2019-05-13T15:57:45.854Z,72.10
2019-05-13T16:00:17.744Z,72.50
2019-05-13T16:02:49.046Z,72.90
2019-05-13T16:05:20.380Z,73.20
2019-05-13T16:07:52.388Z,73.50
2019-05-13T16:10:23.833Z,73.90
2019-05-13T16:12:56.055Z,74.20
2019-05-13T16:15:27.633Z,74.30
2019-05-13T16:17:59.248Z,74.30
2019-05-13T16:20:32.129Z,74.40
2019-05-13T16:23:04.187Z,74.50
2019-05-13T16:25:35.973Z,74.70
2019-05-13T16:28:07.393Z,74.70
2019-05-13T16:30:41.641Z,74.80
2019-05-13T16:33:12.513Z,74.60
2019-05-13T16:35:44.428Z,74.70
2019-05-13T16:38:15.708Z,74.80
2019-05-13T16:40:46.944Z,74.90
2019-05-13T16:43:18.629Z,75.10
2019-05-13T16:45:52.205Z,75.40
2019-05-13T16:48:24.048Z,75.60
2019-05-13T16:50:55.510Z,75.80
2019-05-13T16:53:27.078Z,76.00
2019-05-13T16:55:58.390Z,76.20
2019-05-13T16:58:32.145Z,76.40
2019-05-13T17:01:02.911Z,76.60
2019-05-13T17:03:34.593Z,76.60
2019-05-13T17:06:06.008Z,76.60
2019-05-13T17:08:37.475Z,77.40
2019-05-13T17:11:08.938Z,77.00
2019-05-13T17:13:42.214Z,77.10
2019-05-13T17:16:13.760Z,77.10
2019-05-13T17:18:45.587Z,77.30
2019-05-13T17:21:17.439Z,77.40
2019-05-13T17:23:49.061Z,77.50
2019-05-13T17:26:22.075Z,77.40
2019-05-13T17:28:53.525Z,77.50
2019-05-13T17:31:24.794Z,77.80
2019-05-13T17:33:56.296Z,77.70
2019-05-13T17:36:27.844Z,77.80
2019-05-13T17:39:01.592Z,77.90
2019-05-13T17:41:32.589Z,78.40
2019-05-13T17:44:04.089Z,77.70
2019-05-13T17:46:35.438Z,77.60
2019-05-13T17:49:07.021Z,77.60
2019-05-13T17:51:38.516Z,77.70
2019-05-13T17:54:11.843Z,77.80
2019-05-13T17:56:43.133Z,77.70
2019-05-13T17:59:16.187Z,77.90
2019-05-13T18:01:47.947Z,78.10
2019-05-13T18:04:19.190Z,78.20
2019-05-13T18:06:52.313Z,78.00
2019-05-13T18:09:23.926Z,77.80
2019-05-13T18:11:55.534Z,77.90
2019-05-13T18:14:26.903Z,78.10
2019-05-13T18:16:58.420Z,78.30
2019-05-13T18:19:31.707Z,78.30
2019-05-13T18:22:05.526Z,78.50
2019-05-13T18:24:37.085Z,78.60
2019-05-13T18:27:08.381Z,78.80
2019-05-13T18:29:41.587Z,79.20
2019-05-13T18:32:12.960Z,79.40
2019-05-13T18:34:44.338Z,79.70
2019-05-13T18:37:16.623Z,79.90
2019-05-13T18:39:47.868Z,80.20
2019-05-13T18:42:19.282Z,80.30
2019-05-13T18:44:51.353Z,80.50
2019-05-13T18:47:22.814Z,80.50
2019-05-13T18:49:54.239Z,80.60
2019-05-13T18:52:25.919Z,80.70
2019-05-13T18:54:59.092Z,80.60
2019-05-13T18:57:31.905Z,80.20
2019-05-13T19:00:04.759Z,80.20
2019-05-13T19:02:36.021Z,80.20
2019-05-13T19:05:08.035Z,80.50
2019-05-13T19:07:41.664Z,80.80
2019-05-13T19:10:12.805Z,80.90
2019-05-13T19:12:44.095Z,81.00
2019-05-13T19:15:16.784Z,81.20
2019-05-13T19:17:48.109Z,81.50
2019-05-13T19:20:21.805Z,81.70
2019-05-13T19:22:52.575Z,81.70
2019-05-13T19:25:24.217Z,81.60
2019-05-13T19:27:55.569Z,81.50
2019-05-13T19:30:26.949Z,81.60
2019-05-13T19:32:58.632Z,81.70
2019-05-13T19:35:32.277Z,81.80
2019-05-13T19:38:04.156Z,82.00
2019-05-13T19:40:35.449Z,82.20
2019-05-13T19:43:06.763Z,82.30
2019-05-13T19:45:38.103Z,82.30
2019-05-13T19:48:11.631Z,82.40
2019-05-13T19:50:42.957Z,82.40
2019-05-13T19:53:14.489Z,82.50
2019-05-13T19:55:45.709Z,82.50
2019-05-13T19:58:17.287Z,82.70
2019-05-13T20:00:48.832Z,82.90
2019-05-13T20:03:22.554Z,82.80
2019-05-13T20:05:53.690Z,82.80
2019-05-13T20:08:25.173Z,82.80
2019-05-13T20:10:56.585Z,82.70
2019-05-13T20:13:27.901Z,82.90
2019-05-13T20:16:01.326Z,82.90
2019-05-13T20:18:32.776Z,82.90
2019-05-13T20:21:04.248Z,83.00
2019-05-13T20:23:35.740Z,83.10
2019-05-13T20:26:07.438Z,83.10
2019-05-13T20:28:38.997Z,83.20
2019-05-13T20:31:11.061Z,83.40
2019-05-13T20:33:43.104Z,83.30
2019-05-13T20:36:14.465Z,83.40
2019-05-13T20:38:46.146Z,83.60
2019-05-13T20:41:17.624Z,83.40
2019-05-13T20:43:48.933Z,83.40
2019-05-13T20:46:22.959Z,83.60
2019-05-13T20:48:53.996Z,83.60
2019-05-13T20:51:25.337Z,83.60
2019-05-13T20:53:56.828Z,83.60
2019-05-13T20:56:28.149Z,83.60
2019-05-13T20:58:59.871Z,83.60
2019-05-13T21:01:31.400Z,83.50
2019-05-13T21:04:02.848Z,83.50
2019-05-13T21:06:34.329Z,83.50
2019-05-13T21:09:05.734Z,83.50
2019-05-13T21:11:36.984Z,83.60
2019-05-13T21:14:08.287Z,83.60
2019-05-13T21:16:41.517Z,83.70
2019-05-13T21:19:12.708Z,83.90
2019-05-13T21:21:44.009Z,84.10
2019-05-13T21:24:15.861Z,84.20
2019-05-13T21:26:47.305Z,84.30
2019-05-13T21:29:18.648Z,84.40
2019-05-13T21:31:50.196Z,84.30
2019-05-13T21:34:21.863Z,84.20
2019-05-13T21:36:53.646Z,84.10
2019-05-13T21:39:25.217Z,83.80
2019-05-13T21:41:56.606Z,83.70
2019-05-13T21:44:28.207Z,83.60
2019-05-13T21:47:02.002Z,83.60
2019-05-13T21:49:32.819Z,83.70
2019-05-13T21:52:04.213Z,83.70
2019-05-13T21:54:35.977Z,83.60
2019-05-13T21:57:08.604Z,83.50
2019-05-13T21:59:41.404Z,83.50
2019-05-13T22:02:13.504Z,83.60
2019-05-13T22:04:45.199Z,83.80
2019-05-13T22:07:16.755Z,83.90
2019-05-13T22:09:48.583Z,83.90
2019-05-13T22:12:21.723Z,83.90
2019-05-13T22:14:53.223Z,83.90
2019-05-13T22:17:24.713Z,84.00
2019-05-13T22:19:56.157Z,84.00
2019-05-13T22:22:28.056Z,84.20
2019-05-13T22:25:01.755Z,84.10
2019-05-13T22:27:34.034Z,84.10
2019-05-13T22:30:05.629Z,84.20
2019-05-13T22:32:36.954Z,84.10
2019-05-13T22:35:11.197Z,84.20
2019-05-13T22:37:42.629Z,84.30
2019-05-13T22:40:14.032Z,84.30
2019-05-13T22:42:46.274Z,84.40
2019-05-13T22:45:17.750Z,84.50
2019-05-13T22:47:49.246Z,84.60
2019-05-13T22:50:21.830Z,84.70
2019-05-13T22:52:53.281Z,84.50
2019-05-13T22:55:24.544Z,84.60
2019-05-13T22:57:55.728Z,84.70
2019-05-13T23:00:26.961Z,84.60
2019-05-13T23:02:58.521Z,84.70
2019-05-13T23:05:30.392Z,84.80
2019-05-13T23:08:02.239Z,84.80
2019-05-13T23:10:33.632Z,84.90
2019-05-13T23:13:05.020Z,84.90
2019-05-13T23:15:36.576Z,84.80
2019-05-13T23:18:07.953Z,84.90
2019-05-13T23:20:41.038Z,84.80
2019-05-13T23:23:12.525Z,84.90
2019-05-13T23:25:43.902Z,84.90
2019-05-13T23:28:15.327Z,84.90
2019-05-13T23:30:47.049Z,84.90
2019-05-13T23:33:18.903Z,84.90
2019-05-13T23:35:50.197Z,85.10
2019-05-13T23:38:21.735Z,85.20
2019-05-13T23:40:53.062Z,85.30
2019-05-13T23:43:24.693Z,85.10
2019-05-13T23:45:56.099Z,85.40
2019-05-13T23:48:27.660Z,85.40
2019-05-13T23:51:01.204Z,85.40
2019-05-13T23:53:32.559Z,85.50
2019-05-13T23:56:04.001Z,86.20
2019-05-13T23:58:35.433Z,85.60
